Time;durP1;ratioP1;P1;durP2;ratioP2;P2;SDS_P1;SDS_P2;PMS_P1;PMS_P2;Temp;Humidity;BMP_temperature;BMP_pressure;BME280_temperature;BME280_humidity;BME280_pressure;Samples;Min_cycle;Max_cycle;Signal;HPM_P1;HPM_P2
2022/09/30 00:01:35;;;;;;;8.52;6.78;;;;;;;9.97;64.50;100712.81;5066067;28;20029;-58
2022/09/30 00:04:01;;;;;;;9.18;7.43;;;;;;;9.91;64.63;100711.91;5075662;28;20021;-58
2022/09/30 00:06:28;;;;;;;10.50;8.13;;;;;;;9.88;64.28;100723.50;5070794;28;20025;-58
2022/09/30 00:08:54;;;;;;;9.55;8.48;;;;;;;9.86;64.23;100724.81;5072250;28;20468;-58
2022/09/30 00:11:24;;;;;;;11.98;9.23;;;;;;;9.79;64.35;100725.00;5068318;28;20028;-58
2022/09/30 00:13:50;;;;;;;11.88;9.00;;;;;;;9.79;64.49;100725.00;5088307;28;20115;-58
2022/09/30 00:16:18;;;;;;;11.50;9.75;;;;;;;9.79;64.60;100730.56;5072573;28;20034;-58
2022/09/30 00:18:44;;;;;;;10.15;8.98;;;;;;;9.80;64.76;100732.22;5061706;28;20033;-58
2022/09/30 00:21:11;;;;;;;10.10;8.60;;;;;;;9.78;64.33;100731.63;5064297;28;20094;-58
2022/09/30 00:23:37;;;;;;;10.25;7.75;;;;;;;9.75;64.36;100726.59;5062002;28;20024;-58
2022/09/30 00:26:06;;;;;;;10.57;9.20;;;;;;;9.70;64.52;100727.31;5083271;28;20032;-58
2022/09/30 00:28:32;;;;;;;9.23;8.30;;;;;;;9.71;64.35;100728.19;5078530;28;20033;-58
2022/09/30 00:30:59;;;;;;;10.82;8.00;;;;;;;9.67;64.71;100725.09;5090706;28;20052;-58
2022/09/30 00:33:24;;;;;;;10.10;8.07;;;;;;;9.66;64.25;100719.75;5061380;28;20096;-58
2022/09/30 00:35:49;;;;;;;9.43;8.05;;;;;;;9.65;64.57;100724.47;5072440;28;20114;-58
2022/09/30 00:38:15;;;;;;;9.52;8.55;;;;;;;9.63;64.60;100721.13;5082830;28;20487;-58
2022/09/30 00:40:40;;;;;;;11.05;9.73;;;;;;;9.59;64.35;100718.00;5065723;28;20032;-58
2022/09/30 00:43:36;;;;;;;15.35;11.52;;;;;;;9.63;64.43;100720.25;5070398;28;20048;-58
2022/09/30 00:46:02;;;;;;;15.57;11.57;;;;;;;9.62;64.36;100729.66;5072534;28;20030;-58
2022/09/30 00:48:36;;;;;;;15.18;12.40;;;;;;;9.58;64.84;100721.84;5060774;28;20025;-59
2022/09/30 00:51:05;;;;;;;16.77;13.20;;;;;;;9.54;64.27;100723.44;5064337;28;20052;-58
2022/09/30 00:53:53;;;;;;;15.02;12.95;;;;;;;9.61;64.45;100725.22;5057269;28;20395;-59
2022/09/30 00:56:27;;;;;;;14.90;12.50;;;;;;;9.54;64.50;100731.75;5063902;28;20468;-59
2022/09/30 00:59:01;;;;;;;12.75;11.45;;;;;;;9.53;64.41;100727.31;5079231;28;20365;-58
2022/09/30 01:01:26;;;;;;;14.98;11.80;;;;;;;9.48;64.32;100734.69;5077842;28;20434;-58
2022/09/30 01:04:00;;;;;;;14.88;12.00;;;;;;;9.50;64.18;100727.81;5065439;28;20108;-58
2022/09/30 01:06:26;;;;;;;14.27;10.88;;;;;;;9.45;64.43;100724.13;5068365;28;20503;-58
2022/09/30 01:08:51;;;;;;;13.25;11.30;;;;;;;9.42;64.09;100736.53;5067505;28;20060;-58
2022/09/30 01:11:17;;;;;;;12.10;10.63;;;;;;;9.41;63.87;100725.69;5069339;28;21007;-58
2022/09/30 01:13:47;;;;;;;13.75;10.52;;;;;;;9.40;64.56;100732.34;5065044;28;20442;-58
2022/09/30 01:16:21;;;;;;;12.38;10.63;;;;;;;9.38;64.45;100732.56;5065616;28;20131;-57
2022/09/30 01:19:21;;;;;;;14.85;11.07;;;;;;;9.42;64.32;100724.59;5075898;28;20495;-58
2022/09/30 01:21:58;;;;;;;13.38;10.60;;;;;;;9.34;64.26;100726.69;5059335;28;20491;-58
2022/09/30 01:24:50;;;;;;;14.13;11.18;;;;;;;9.40;64.70;100732.34;5071610;28;20480;-58
2022/09/30 01:27:18;;;;;;;12.50;9.88;;;;;;;9.35;64.68;100733.06;5067443;28;20040;-58
2022/09/30 01:30:05;;;;;;;12.18;10.43;;;;;;;9.34;64.85;100728.63;5076158;28;20498;-58
2022/09/30 01:32:52;;;;;;;14.63;10.68;;;;;;;9.32;64.27;100728.03;5067041;28;20036;-57
2022/09/30 01:35:41;;;;;;;13.80;10.85;;;;;;;9.25;64.47;100730.13;5063354;28;20036;-58
2022/09/30 01:38:28;;;;;;;13.35;11.02;;;;;;;9.22;64.47;100730.59;5070082;28;20048;-57
2022/09/30 01:41:20;;;;;;;13.27;10.30;;;;;;;9.19;64.81;100728.31;5067186;28;20039;-57
2022/09/30 01:43:52;;;;;;;11.52;10.32;;;;;;;9.20;63.97;100728.09;5066957;28;20028;-58
2022/09/30 01:46:45;;;;;;;12.50;10.90;;;;;;;9.19;64.08;100733.84;5089838;28;20036;-57
2022/09/30 01:49:30;;;;;;;11.65;10.23;;;;;;;9.16;64.27;100735.22;5074831;28;20044;-58
2022/09/30 01:52:09;;;;;;;12.02;9.75;;;;;;;9.18;64.20;100741.31;5069874;28;20086;-57
2022/09/30 01:55:02;;;;;;;11.93;10.27;;;;;;;9.19;64.53;100733.84;5075443;28;20039;-58
2022/09/30 01:57:32;;;;;;;;;;;;;;;9.36;64.09;100726.44;5058936;28;20088;-58
2022/09/30 02:00:07;;;;;;;12.60;9.80;;;;;;;9.13;64.03;100737.63;5062714;28;19966;-58
2022/09/30 02:02:40;;;;;;;12.68;9.63;;;;;;;9.05;64.00;100734.16;5076505;28;20025;-58
2022/09/30 02:05:15;;;;;;;8.95;8.10;;;;;;;9.03;64.15;100739.09;5084668;28;20036;-58
2022/09/30 02:07:48;;;;;;;12.00;9.15;;;;;;;8.98;63.90;100732.63;5064283;28;20111;-58
2022/09/30 02:10:26;;;;;;;9.98;8.55;;;;;;;8.98;64.09;100732.63;5072285;28;20404;-58
2022/09/30 02:13:04;;;;;;;10.35;9.05;;;;;;;8.93;64.13;100736.13;5071641;28;20123;-58
2022/09/30 02:15:41;;;;;;;10.25;8.77;;;;;;;8.96;64.92;100740.31;5061551;28;20028;-58
2022/09/30 02:18:18;;;;;;;10.73;8.82;;;;;;;8.94;64.27;100736.97;5066748;28;20074;-58
2022/09/30 02:20:46;;;;;;;9.65;8.65;;;;;;;8.91;64.09;100741.06;5068274;28;20027;-58
2022/09/30 02:23:19;;;;;;;9.68;8.70;;;;;;;8.92;64.28;100739.13;5064027;28;20035;-58
2022/09/30 02:25:51;;;;;;;10.25;8.30;;;;;;;8.88;64.07;100736.00;5072403;28;20064;-58
2022/09/30 02:28:25;;;;;;;9.45;8.38;;;;;;;8.85;64.15;100742.03;5059073;28;20576;-58
2022/09/30 02:30:55;;;;;;;11.02;8.10;;;;;;;8.84;64.44;100745.88;5058882;28;20045;-58
2022/09/30 02:33:39;;;;;;;10.32;8.48;;;;;;;8.87;64.77;100742.63;5063935;28;20119;-58
2022/09/30 02:36:26;;;;;;;10.80;8.50;;;;;;;8.82;64.35;100745.28;5067936;28;20064;-58
2022/09/30 02:39:33;;;;;;;9.93;8.93;;;;;;;8.90;64.92;100735.78;5071899;28;20048;-58
2022/09/30 02:42:09;;;;;;;11.48;8.55;;;;;;;8.83;65.19;100733.13;5059553;28;20051;-58
2022/09/30 02:44:36;;;;;;;10.02;8.82;;;;;;;8.80;64.44;100733.63;5082644;28;20036;-58
2022/09/30 02:47:24;;;;;;;11.63;9.00;;;;;;;8.80;64.41;100730.84;5058251;28;20411;-58
2022/09/30 02:50:21;;;;;;;11.00;9.38;;;;;;;8.84;64.59;100735.69;5072797;28;20048;-58
2022/09/30 02:53:14;;;;;;;10.82;9.20;;;;;;;8.83;65.12;100738.66;5052030;28;20075;-58
2022/09/30 02:56:05;;;;;;;10.00;9.05;;;;;;;8.82;64.10;100731.47;5067907;28;20088;-58
2022/09/30 02:58:35;;;;;;;12.30;9.40;;;;;;;8.71;64.59;100737.84;5073913;28;20073;-58
2022/09/30 03:01:00;;;;;;;12.05;9.10;;;;;;;8.71;64.99;100735.09;5062064;28;20109;-58
2022/09/30 03:03:31;;;;;;;11.23;9.80;;;;;;;8.69;64.52;100731.75;5071072;28;20107;-59
2022/09/30 03:05:56;;;;;;;10.52;9.43;;;;;;;8.64;64.30;100728.84;5053045;28;20392;-57
2022/09/30 03:08:21;;;;;;;14.20;9.65;;;;;;;8.64;64.44;100732.44;5060829;28;20025;-57
2022/09/30 03:10:51;;;;;;;10.88;9.77;;;;;;;8.59;64.47;100730.41;5087692;28;20032;-57
2022/09/30 03:13:38;;;;;;;11.93;10.30;;;;;;;8.66;64.98;100748.81;5061326;28;20095;-57
2022/09/30 03:16:37;;;;;;;11.65;10.00;;;;;;;8.64;64.92;100745.44;5054054;28;20037;-58
2022/09/30 03:19:25;;;;;;;12.75;10.20;;;;;;;8.61;64.61;100738.50;5069681;28;20048;-59
2022/09/30 03:22:23;;;;;;;12.32;9.70;;;;;;;8.60;64.70;100740.38;5080034;28;20036;-58
2022/09/30 03:24:58;;;;;;;15.52;9.90;;;;;;;8.55;65.30;100737.50;5065955;28;20033;-59
2022/09/30 03:27:45;;;;;;;10.77;9.65;;;;;;;8.55;64.80;100747.75;5060333;28;20483;-58
2022/09/30 03:30:18;;;;;;;13.77;9.75;;;;;;;8.52;64.97;100753.75;5062000;28;20519;-59
2022/09/30 03:33:01;;;;;;;12.40;10.30;;;;;;;8.51;65.25;100752.06;5064641;28;20033;-58
2022/09/30 03:35:46;;;;;;;11.82;10.63;;;;;;;8.49;64.84;100749.56;5063751;28;20356;-59
2022/09/30 03:38:30;;;;;;;11.38;10.18;;;;;;;8.52;64.83;100757.34;5070084;28;20032;-59
2022/09/30 03:41:23;;;;;;;12.82;10.30;;;;;;;8.51;65.12;100741.84;5067791;28;20040;-59
2022/09/30 03:43:51;;;;;;;;;;;;;;;8.72;64.75;100748.66;5081365;28;20157;-59
2022/09/30 03:46:28;;;;;;;14.13;10.85;;;;;;;8.55;64.55;100750.50;5083314;28;19935;-59
2022/09/30 03:48:57;;;;;;;13.07;10.43;;;;;;;8.46;64.62;100757.50;5091043;28;20020;-59
2022/09/30 03:51:28;;;;;;;12.80;10.27;;;;;;;8.44;64.58;100757.72;5075942;28;20020;-59
2022/09/30 03:53:54;;;;;;;13.23;10.93;;;;;;;8.43;65.20;100760.75;5086613;28;20043;-59
2022/09/30 03:56:28;;;;;;;12.13;10.80;;;;;;;8.42;65.42;100770.97;5075176;28;20044;-58
2022/09/30 03:58:55;;;;;;;13.98;11.07;;;;;;;8.39;64.87;100770.59;5069315;28;20021;-59
2022/09/30 04:01:20;;;;;;;13.27;11.65;;;;;;;8.36;65.16;100777.41;5074442;28;20016;-59
2022/09/30 04:03:47;;;;;;;12.73;11.43;;;;;;;8.36;65.52;100780.19;5082041;28;20028;-59
2022/09/30 04:06:13;;;;;;;12.93;11.73;;;;;;;8.34;65.53;100776.84;5072525;28;20035;-59
2022/09/30 04:08:38;;;;;;;12.77;11.48;;;;;;;8.38;65.91;100775.31;5069752;28;20388;-59
2022/09/30 04:11:04;;;;;;;13.30;11.70;;;;;;;8.35;65.68;100782.13;5067525;28;20028;-59
2022/09/30 04:13:30;;;;;;;13.80;11.65;;;;;;;8.36;65.54;100789.31;5073523;28;20028;-59
2022/09/30 04:15:55;;;;;;;13.43;12.10;;;;;;;8.37;65.34;100801.28;5080162;28;20058;-59
2022/09/30 04:18:20;;;;;;;13.43;12.00;;;;;;;8.36;65.66;100805.91;5067889;28;20020;-58
2022/09/30 04:20:46;;;;;;;16.33;12.07;;;;;;;8.36;65.84;100810.59;5067131;28;20070;-58
2022/09/30 04:23:11;;;;;;;15.35;13.63;;;;;;;8.35;65.77;100820.00;5078185;28;20043;-59
2022/09/30 04:25:36;;;;;;;18.13;13.57;;;;;;;8.34;65.55;100815.56;5071453;28;20028;-59
2022/09/30 04:28:02;;;;;;;14.50;13.10;;;;;;;8.36;65.37;100821.66;5077418;28;20488;-58
2022/09/30 04:30:28;;;;;;;16.13;13.40;;;;;;;8.32;65.21;100831.53;5071821;28;20641;-58
2022/09/30 04:32:53;;;;;;;15.60;13.57;;;;;;;8.32;65.66;100828.75;5063515;28;20032;-59
2022/09/30 04:35:19;;;;;;;15.75;13.55;;;;;;;8.30;65.61;100826.25;5066429;28;20056;-59
2022/09/30 04:37:45;;;;;;;15.77;14.18;;;;;;;8.27;65.80;100823.13;5070546;28;20032;-59
2022/09/30 04:40:12;;;;;;;15.82;14.13;;;;;;;8.26;65.66;100816.75;5064750;28;20032;-59
2022/09/30 04:42:41;;;;;;;15.20;13.70;;;;;;;8.25;66.24;100822.50;5067162;28;20025;-59
2022/09/30 04:45:08;;;;;;;15.48;13.95;;;;;;;8.22;66.15;100825.75;5074042;28;20025;-59
2022/09/30 04:47:34;;;;;;;15.43;13.93;;;;;;;8.24;66.28;100824.41;5086740;28;20048;-59
2022/09/30 04:49:59;;;;;;;15.43;13.85;;;;;;;8.24;65.41;100829.94;5065715;28;20044;-59
2022/09/30 04:52:24;;;;;;;14.93;13.43;;;;;;;8.22;66.17;100825.75;5074670;28;20032;-59
2022/09/30 04:54:50;;;;;;;16.90;15.10;;;;;;;8.23;66.26;100832.97;5086319;28;20020;-59
2022/09/30 04:57:16;;;;;;;15.48;13.98;;;;;;;8.26;66.03;100835.25;5073262;28;20024;-59
2022/09/30 04:59:42;;;;;;;19.02;14.63;;;;;;;8.22;66.14;100837.66;5071310;28;20081;-59
2022/09/30 05:02:11;;;;;;;17.00;14.95;;;;;;;8.20;66.06;100833.44;5063161;28;20036;-59
2022/09/30 05:04:37;;;;;;;16.73;14.98;;;;;;;8.19;65.65;100842.81;5069021;28;20033;-59
2022/09/30 05:07:05;;;;;;;16.70;14.93;;;;;;;8.16;65.62;100848.81;5070203;28;20365;-59
2022/09/30 05:09:30;;;;;;;16.35;14.65;;;;;;;8.14;66.05;100851.84;5070470;28;20087;-59
2022/09/30 05:11:55;;;;;;;17.08;15.38;;;;;;;8.17;66.94;100858.78;5059384;28;20028;-59
2022/09/30 05:14:21;;;;;;;15.90;14.30;;;;;;;8.14;66.54;100856.53;5058509;28;20033;-59
2022/09/30 05:16:46;;;;;;;16.15;14.45;;;;;;;8.14;65.96;100859.28;5065862;28;20028;-59
2022/09/30 05:19:11;;;;;;;17.25;15.45;;;;;;;8.14;66.03;100862.06;5067058;28;20024;-58
2022/09/30 05:21:36;;;;;;;16.92;15.25;;;;;;;8.12;66.20;100860.34;5076716;28;20494;-59
2022/09/30 05:24:02;;;;;;;16.67;15.07;;;;;;;8.13;66.54;100863.94;5067260;28;20063;-58
2022/09/30 05:26:27;;;;;;;18.17;14.25;;;;;;;8.11;66.28;100868.88;5081263;28;20511;-59
2022/09/30 05:28:52;;;;;;;17.27;13.93;;;;;;;8.09;66.21;100868.25;5059849;28;20064;-59
2022/09/30 05:31:19;;;;;;;17.13;15.43;;;;;;;8.08;66.07;100869.34;5085164;28;20111;-59
2022/09/30 05:33:45;;;;;;;18.23;14.55;;;;;;;8.07;66.41;100864.91;5071527;28;20606;-59
2022/09/30 05:36:13;;;;;;;16.02;14.38;;;;;;;8.02;65.93;100867.56;5061468;28;20036;-59
2022/09/30 05:38:39;;;;;;;16.95;15.18;;;;;;;8.03;66.62;100864.53;5054520;28;20556;-58
2022/09/30 05:41:06;;;;;;;15.82;14.23;;;;;;;8.01;66.47;100871.38;5064590;28;20163;-58
2022/09/30 05:43:31;;;;;;;16.05;14.35;;;;;;;8.00;66.47;100881.59;5071663;28;20377;-58
2022/09/30 05:45:57;;;;;;;17.67;14.80;;;;;;;8.00;66.25;100889.03;5064649;28;20024;-58
2022/09/30 05:48:24;;;;;;;15.98;14.32;;;;;;;8.00;67.10;100889.88;5065082;28;20032;-58
2022/09/30 05:50:54;;;;;;;17.17;14.82;;;;;;;8.00;66.69;100900.94;5059696;28;20029;-58
2022/09/30 05:53:19;;;;;;;18.27;14.98;;;;;;;7.98;66.28;100903.09;5059875;28;20757;-58
2022/09/30 05:55:46;;;;;;;20.45;14.88;;;;;;;7.99;66.44;100902.03;5066463;28;20047;-58
2022/09/30 05:58:12;;;;;;;15.43;13.82;;;;;;;8.00;67.10;100905.63;5070478;28;20035;-58
2022/09/30 06:00:40;;;;;;;15.82;14.15;;;;;;;8.00;66.58;100906.47;5062807;28;20464;-58
2022/09/30 06:03:06;;;;;;;16.15;14.32;;;;;;;7.99;66.20;100902.03;5067059;28;20039;-59
2022/09/30 06:05:31;;;;;;;17.20;14.30;;;;;;;8.03;66.63;100906.00;5062870;28;20400;-59
2022/09/30 06:07:56;;;;;;;17.25;14.55;;;;;;;8.03;67.03;100914.28;5065891;28;20060;-58
2022/09/30 06:10:22;;;;;;;16.83;14.48;;;;;;;8.05;67.18;100923.19;5067779;28;20407;-58
2022/09/30 06:12:48;;;;;;;17.27;15.07;;;;;;;8.04;67.81;100921.50;5057844;28;20110;-58
2022/09/30 06:15:13;;;;;;;16.58;14.98;;;;;;;8.07;67.87;100920.19;5062426;28;20071;-59
2022/09/30 06:17:41;;;;;;;17.50;15.55;;;;;;;8.08;69.42;100919.94;5060462;28;20082;-59
2022/09/30 06:20:08;;;;;;;16.90;15.18;;;;;;;8.11;69.54;100925.03;5060129;28;20512;-59
2022/09/30 06:22:36;;;;;;;17.15;15.35;;;;;;;8.17;68.90;100930.69;5076249;28;20024;-59
2022/09/30 06:25:05;;;;;;;18.15;16.35;;;;;;;8.21;69.87;100924.44;5064083;28;20035;-59
2022/09/30 06:27:32;;;;;;;19.17;15.52;;;;;;;8.23;69.59;100930.59;5064039;28;20103;-59
2022/09/30 06:29:58;;;;;;;18.35;16.10;;;;;;;8.29;69.68;100928.78;5065582;28;20140;-58
2022/09/30 06:32:25;;;;;;;17.25;15.45;;;;;;;8.28;70.33;100939.00;5063889;28;20573;-59
2022/09/30 06:34:52;;;;;;;17.80;15.10;;;;;;;8.31;70.66;100937.69;5054013;28;20081;-58
2022/09/30 06:37:18;;;;;;;19.75;15.90;;;;;;;8.34;70.11;100935.31;5069305;28;20032;-58
2022/09/30 06:39:43;;;;;;;17.25;15.55;;;;;;;8.35;70.36;100937.00;5066778;28;20036;-58
2022/09/30 06:42:10;;;;;;;19.30;16.35;;;;;;;8.36;70.57;100932.28;5065988;28;20717;-58
2022/09/30 06:44:35;;;;;;;18.67;16.70;;;;;;;8.39;70.92;100931.03;5067611;28;20037;-59
2022/09/30 06:47:01;;;;;;;18.52;15.95;;;;;;;8.42;70.85;100917.56;5070168;28;20033;-59
2022/09/30 06:49:27;;;;;;;19.17;17.20;;;;;;;8.44;71.08;100920.91;5064235;28;20114;-58
2022/09/30 06:51:52;;;;;;;18.52;16.40;;;;;;;8.65;72.28;100927.84;5067574;28;20032;-59
2022/09/30 06:54:19;;;;;;;18.35;16.35;;;;;;;8.72;70.67;100920.25;5062386;28;20032;-60
2022/09/30 06:56:48;;;;;;;18.85;16.67;;;;;;;8.70;71.14;100921.56;5062457;28;20033;-58
2022/09/30 06:59:16;;;;;;;19.58;17.13;;;;;;;8.72;70.74;100933.22;5060924;28;20028;-59
2022/09/30 07:01:43;;;;;;;19.50;17.50;;;;;;;8.71;71.41;100917.72;5056774;28;20226;-59
2022/09/30 07:04:10;;;;;;;21.42;19.13;;;;;;;8.72;71.52;100924.94;5053066;28;20107;-59
2022/09/30 07:06:37;;;;;;;21.52;17.30;;;;;;;8.74;71.43;100920.84;5052352;28;20028;-59
2022/09/30 07:09:06;;;;;;;23.23;18.30;;;;;;;8.81;71.53;100926.28;5072524;28;20040;-58
2022/09/30 07:11:36;;;;;;;23.15;18.45;;;;;;;8.84;71.96;100928.53;5060850;28;20029;-58
2022/09/30 07:14:02;;;;;;;22.48;19.05;;;;;;;8.85;72.39;100922.78;5067417;28;20020;-58
2022/09/30 07:16:28;;;;;;;23.70;19.45;;;;;;;8.86;72.36;100926.41;5067682;28;20461;-59
2022/09/30 07:18:54;;;;;;;24.42;19.63;;;;;;;8.91;72.48;100922.91;5074859;28;20028;-58
2022/09/30 07:21:19;;;;;;;24.48;19.98;;;;;;;9.00;73.04;100927.00;5073986;28;20380;-58
2022/09/30 07:23:46;;;;;;;25.13;21.02;;;;;;;9.05;72.59;100924.34;5074699;28;20117;-58
2022/09/30 07:26:14;;;;;;;25.65;20.52;;;;;;;9.07;73.31;100920.25;5066806;28;20025;-59
2022/09/30 07:28:39;;;;;;;24.13;21.60;;;;;;;9.14;73.47;100927.59;5067712;28;20035;-59
2022/09/30 07:31:15;;;;;;;24.30;20.70;;;;;;;9.21;73.60;100928.31;5095045;28;20089;-59
2022/09/30 07:33:41;;;;;;;27.38;21.58;;;;;;;9.25;73.59;100932.28;5066703;28;20108;-59
2022/09/30 07:36:07;;;;;;;23.77;21.27;;;;;;;9.32;73.19;100939.38;5068374;28;20064;-59
2022/09/30 07:38:35;;;;;;;23.48;20.73;;;;;;;9.41;72.91;100939.84;5072606;28;20098;-59
2022/09/30 07:41:05;;;;;;;23.08;20.65;;;;;;;9.50;73.48;100927.28;5073933;28;20029;-60
2022/09/30 07:43:33;;;;;;;24.15;21.55;;;;;;;9.64;73.44;100944.50;5077337;28;20035;-60
2022/09/30 07:46:11;;;;;;;22.95;20.52;;;;;;;9.79;73.08;100947.59;5063578;28;20437;-59
2022/09/30 07:48:43;;;;;;;24.83;21.35;;;;;;;9.93;73.42;100945.38;5053782;28;20024;-59
2022/09/30 07:51:19;;;;;;;25.70;20.40;;;;;;;10.07;73.25;100944.00;5052765;28;20082;-59
2022/09/30 07:53:48;;;;;;;24.02;20.15;;;;;;;10.18;72.44;100927.53;5079624;28;20028;-59
2022/09/30 07:56:14;;;;;;;22.95;20.13;;;;;;;10.31;72.65;100938.38;5089971;28;20028;-59
2022/09/30 07:58:41;;;;;;;23.38;19.48;;;;;;;10.43;72.71;100935.53;5069983;28;20458;-59
2022/09/30 08:01:06;;;;;;;24.95;19.67;;;;;;;10.54;72.24;100929.91;5076701;28;20029;-59
2022/09/30 08:03:38;;;;;;;21.17;18.88;;;;;;;10.70;72.63;100935.72;5057654;28;20021;-60
2022/09/30 08:06:15;;;;;;;21.40;19.10;;;;;;;10.79;71.42;100940.59;5077631;28;20053;-61
2022/09/30 08:08:43;;;;;;;21.27;18.80;;;;;;;10.88;70.93;100931.84;5065421;28;20029;-60
2022/09/30 08:11:09;;;;;;;20.23;18.13;;;;;;;10.98;70.92;100929.22;5064488;28;20037;-59
2022/09/30 08:13:34;;;;;;;20.98;18.40;;;;;;;11.11;70.57;100930.81;5057233;28;20073;-59
2022/09/30 08:16:00;;;;;;;22.45;19.25;;;;;;;11.21;70.49;100933.75;5080344;28;20040;-60
2022/09/30 08:18:26;;;;;;;21.08;18.77;;;;;;;11.33;70.31;100928.91;5072342;28;20067;-60
2022/09/30 08:20:52;;;;;;;25.50;20.35;;;;;;;11.41;70.28;100933.19;5085780;28;20024;-59
2022/09/30 08:23:17;;;;;;;23.80;21.27;;;;;;;11.50;70.01;100937.22;5084825;28;20032;-59
2022/09/30 08:25:42;;;;;;;23.20;20.70;;;;;;;11.62;69.54;100942.66;5075171;28;20064;-59
2022/09/30 08:28:08;;;;;;;24.70;21.25;;;;;;;11.65;69.19;100939.34;5061282;28;20071;-59
2022/09/30 08:30:34;;;;;;;27.98;23.42;;;;;;;11.77;69.42;100942.84;5071030;28;20045;-59
2022/09/30 08:32:59;;;;;;;28.85;23.50;;;;;;;11.88;69.65;100941.06;5066994;28;20040;-59
2022/09/30 08:35:25;;;;;;;25.27;22.45;;;;;;;12.00;69.53;100938.97;5067641;28;20036;-59
2022/09/30 08:37:50;;;;;;;24.00;21.42;;;;;;;12.11;69.20;100935.22;5085344;28;20125;-59
2022/09/30 08:40:23;;;;;;;24.13;21.52;;;;;;;12.22;69.22;100931.44;5062383;28;20142;-59
2022/09/30 08:43:17;;;;;;;23.90;21.30;;;;;;;12.31;68.13;100931.81;5067765;28;20032;-59
2022/09/30 08:45:56;;;;;;;22.63;20.23;;;;;;;12.45;68.42;100935.00;5062474;28;20058;-59
2022/09/30 08:48:46;;;;;;;25.08;20.95;;;;;;;12.60;69.32;100939.88;5056476;28;20061;-59
2022/09/30 08:51:35;;;;;;;22.38;19.98;;;;;;;12.71;68.60;100936.06;5061866;28;20550;-59
2022/09/30 08:54:05;;;;;;;22.48;20.00;;;;;;;12.80;68.40;100953.97;5052765;28;20033;-59
2022/09/30 08:56:32;;;;;;;22.50;19.45;;;;;;;12.94;68.40;100957.16;5051494;28;20035;-59
2022/09/30 08:59:30;;;;;;;20.45;18.20;;;;;;;13.01;68.45;100950.25;5053855;28;20036;-59
2022/09/30 09:02:11;;;;;;;21.65;18.30;;;;;;;13.15;69.10;100947.00;5061183;28;20033;-59
2022/09/30 09:04:37;;;;;;;20.05;17.95;;;;;;;13.30;68.79;100940.72;5060135;28;20449;-60
2022/09/30 09:07:21;;;;;;;20.73;16.73;;;;;;;13.38;67.88;100951.38;5066132;28;20107;-60
2022/09/30 09:10:07;;;;;;;20.80;16.88;;;;;;;13.48;67.62;100931.94;5058665;28;20029;-59
2022/09/30 09:12:48;;;;;;;20.15;17.73;;;;;;;13.52;68.18;100924.69;5062620;28;20032;-59
2022/09/30 09:15:29;;;;;;;20.60;18.35;;;;;;;13.65;67.86;100923.34;5070973;28;20123;-60
2022/09/30 09:18:24;;;;;;;22.00;18.48;;;;;;;13.69;67.49;100944.00;5066578;28;20468;-59
2022/09/30 09:20:53;;;;;;;20.65;18.55;;;;;;;13.75;67.67;100940.97;5061827;28;20049;-59
2022/09/30 09:23:19;;;;;;;19.40;16.10;;;;;;;13.85;67.42;100939.34;5067364;28;20029;-59
2022/09/30 09:25:48;;;;;;;17.35;14.98;;;;;;;13.98;67.22;100934.06;5067665;28;20028;-59
2022/09/30 09:28:35;;;;;;;17.48;14.70;;;;;;;14.13;67.16;100940.81;5068883;28;20395;-59
2022/09/30 09:31:02;;;;;;;15.35;13.35;;;;;;;14.19;66.03;100937.78;5057328;28;20048;-59
2022/09/30 09:33:31;;;;;;;17.65;14.82;;;;;;;14.35;66.99;100949.81;5074820;28;20392;-59
2022/09/30 09:36:17;;;;;;;16.73;13.35;;;;;;;14.47;66.64;100949.56;5064610;28;20046;-59
2022/09/30 09:39:10;;;;;;;13.80;12.32;;;;;;;14.59;66.77;100958.56;5089288;28;20120;-59
2022/09/30 09:41:56;;;;;;;12.20;10.90;;;;;;;14.71;66.23;100949.91;5075972;28;20039;-59
2022/09/30 09:44:33;;;;;;;12.32;11.02;;;;;;;14.77;65.54;100951.56;5060061;28;20041;-60
2022/09/30 09:47:06;;;;;;;12.88;11.05;;;;;;;14.84;65.51;100937.31;5060240;28;20043;-59
2022/09/30 09:49:37;;;;;;;13.85;11.75;;;;;;;14.95;65.31;100947.38;5075392;28;20032;-59
2022/09/30 09:52:11;;;;;;;14.73;11.25;;;;;;;15.05;65.16;100946.53;5084984;28;20032;-59
2022/09/30 09:54:40;;;;;;;13.27;11.05;;;;;;;15.12;64.94;100935.91;5058272;28;20404;-59
2022/09/30 09:57:10;;;;;;;12.10;10.60;;;;;;;15.19;64.34;100922.47;5074290;28;20491;-59
2022/09/30 09:59:55;;;;;;;10.90;9.80;;;;;;;15.26;64.84;100925.00;5055155;28;20036;-59
2022/09/30 10:02:31;;;;;;;11.65;10.43;;;;;;;15.32;63.69;100937.81;5063528;28;20448;-59
2022/09/30 10:05:02;;;;;;;11.57;10.38;;;;;;;15.29;63.80;100933.66;5068224;28;20124;-60
2022/09/30 10:07:29;;;;;;;12.27;10.95;;;;;;;15.36;63.46;100933.34;5076156;28;20032;-57
2022/09/30 10:10:14;;;;;;;11.50;10.27;;;;;;;15.40;63.61;100926.88;5069178;28;20029;-57
2022/09/30 10:12:40;;;;;;;10.95;9.68;;;;;;;15.49;62.84;100920.75;5075713;28;20455;-58
2022/09/30 10:15:14;;;;;;;10.20;8.40;;;;;;;15.55;63.00;100930.78;5067324;28;20064;-58
2022/09/30 10:17:40;;;;;;;9.10;8.23;;;;;;;15.62;62.26;100936.91;5062305;28;20043;-57
2022/09/30 10:20:06;;;;;;;9.48;8.55;;;;;;;15.68;61.35;100933.03;5066512;28;20033;-59
2022/09/30 10:22:34;;;;;;;11.23;8.20;;;;;;;15.71;61.46;100938.84;5071557;28;20028;-58
2022/09/30 10:25:08;;;;;;;8.10;7.35;;;;;;;15.77;61.53;100945.28;5074799;28;20036;-59
2022/09/30 10:27:34;;;;;;;10.50;7.88;;;;;;;15.81;61.25;100939.97;5063133;28;20025;-58
2022/09/30 10:29:59;;;;;;;7.55;6.85;;;;;;;15.83;60.99;100944.13;5064527;28;20040;-58
2022/09/30 10:32:26;;;;;;;7.88;7.07;;;;;;;15.88;60.38;100935.72;5065359;28;20044;-58
2022/09/30 10:35:19;;;;;;;8.65;7.43;;;;;;;15.95;61.36;100941.00;5063635;28;20032;-58
2022/09/30 10:37:53;;;;;;;8.73;7.88;;;;;;;15.99;60.32;100946.88;5056793;28;20106;-59
2022/09/30 10:40:25;;;;;;;9.43;7.20;;;;;;;15.99;59.92;100950.50;5051247;28;20499;-60
2022/09/30 10:42:51;;;;;;;8.90;7.10;;;;;;;15.95;59.95;100941.00;5060104;28;20024;-60
2022/09/30 10:45:19;;;;;;;7.82;6.93;;;;;;;15.95;60.26;100943.81;5066159;28;20079;-61
2022/09/30 10:47:48;;;;;;;8.65;6.88;;;;;;;15.99;60.00;100944.91;5060467;28;20021;-61
2022/09/30 10:50:19;;;;;;;7.45;6.65;;;;;;;15.95;58.64;100941.00;5074620;28;20040;-61
2022/09/30 10:52:57;;;;;;;6.95;5.97;;;;;;;15.94;59.70;100945.75;5092779;28;20412;-60
2022/09/30 10:55:41;;;;;;;7.72;5.70;;;;;;;15.91;59.76;100940.72;5057593;28;20057;-59
2022/09/30 10:58:39;;;;;;;6.10;4.82;;;;;;;15.98;58.65;100945.19;5057439;28;20041;-60
2022/09/30 11:01:31;;;;;;;6.13;4.70;;;;;;;15.95;59.45;100941.88;5062980;28;20068;-59
2022/09/30 11:04:00;;;;;;;4.93;3.80;;;;;;;15.92;58.50;100947.19;5063632;28;20430;-59
2022/09/30 11:06:37;;;;;;;4.80;4.28;;;;;;;15.86;58.81;100942.72;5055350;28;20031;-59
2022/09/30 11:09:16;;;;;;;4.68;3.67;;;;;;;16.00;60.95;100935.41;5061415;28;20044;-60
2022/09/30 11:11:51;;;;;;;3.55;3.25;;;;;;;16.22;61.17;100932.19;5067092;28;20035;-61
2022/09/30 11:14:28;;;;;;;3.90;3.50;;;;;;;16.34;58.42;100932.66;5060195;28;20041;-59
2022/09/30 11:17:21;;;;;;;4.13;3.20;;;;;;;16.53;57.73;100924.41;5069387;28;20028;-59
2022/09/30 11:19:58;;;;;;;4.28;3.10;;;;;;;16.65;57.49;100929.66;5064970;28;20048;-58
2022/09/30 11:22:44;;;;;;;4.75;3.35;;;;;;;16.66;57.83;100936.94;5058138;28;20036;-58
2022/09/30 11:25:23;;;;;;;3.35;2.97;;;;;;;16.75;57.73;100928.78;5072681;28;20209;-58
2022/09/30 11:28:09;;;;;;;2.97;2.50;;;;;;;16.88;58.29;100936.50;5069898;28;20388;-58
2022/09/30 11:30:53;;;;;;;3.50;3.20;;;;;;;16.83;56.12;100933.75;5056059;28;20063;-58
2022/09/30 11:33:48;;;;;;;5.47;3.60;;;;;;;16.93;57.36;100919.63;5077006;28;20032;-58
2022/09/30 11:36:39;;;;;;;4.75;4.20;;;;;;;17.03;57.05;100921.53;5081248;28;20442;-59
2022/09/30 11:39:05;;;;;;;5.05;3.38;;;;;;;17.07;55.15;100911.41;5068848;28;20027;-58
2022/09/30 11:41:45;;;;;;;7.40;4.00;;;;;;;17.08;55.51;100918.66;5065799;28;20397;-59
2022/09/30 11:44:33;;;;;;;3.40;3.13;;;;;;;17.04;56.59;100910.00;5081072;28;20073;-58